Time;durP1;ratioP1;P1;durP2;ratioP2;P2;SDS_P1;SDS_P2;PMS_P1;PMS_P2;Temp;Humidity;BMP_temperature;BMP_pressure;BME280_temperature;BME280_humidity;BME280_pressure;Samples;Min_cycle;Max_cycle;Signal;HPM_P1;HPM_P2
2022/06/03 00:00:19;;;;;;;5.30;1.77;;;;;;;22.93;31.17;99024.84;4395075;32;20131;-80
2022/06/03 00:03:11;;;;;;;4.50;1.95;;;;;;;22.91;31.26;99018.78;4409790;32;20552;-79
2022/06/03 00:05:54;;;;;;;5.00;1.77;;;;;;;22.91;31.61;99018.78;4397562;32;20093;-79
2022/06/03 00:08:45;;;;;;;3.72;1.50;;;;;;;22.88;31.72;99021.78;4410054;32;20461;-79
2022/06/03 00:11:28;;;;;;;5.18;2.05;;;;;;;22.80;32.48;99043.22;4422949;32;20097;-79
2022/06/03 00:13:56;;;;;;;5.43;1.92;;;;;;;22.49;34.52;99040.09;4410305;32;20094;-80
2022/06/03 00:16:40;;;;;;;5.20;1.58;;;;;;;22.56;34.36;99049.19;4422995;32;20405;-79
2022/06/03 00:19:17;;;;;;;5.82;1.90;;;;;;;22.61;34.73;99052.28;4422977;32;20140;-79
2022/06/03 00:22:04;;;;;;;5.05;2.10;;;;;;;22.52;34.55;99069.31;4422934;32;20105;-80
2022/06/03 00:24:51;;;;;;;7.57;2.20;;;;;;;22.49;34.79;99069.63;4410458;32;20147;-80
2022/06/03 00:27:22;;;;;;;5.85;2.10;;;;;;;22.47;35.21;99063.56;4422875;32;20154;-79
2022/06/03 00:30:00;;;;;;;6.40;2.20;;;;;;;22.41;35.47;99065.03;4422785;32;20110;-79
2022/06/03 00:32:37;;;;;;;4.97;2.00;;;;;;;22.40;35.95;99057.94;4422927;32;20227;-79
2022/06/03 00:35:36;;;;;;;6.90;2.55;;;;;;;22.39;36.38;99058.97;4409977;32;20425;-79
2022/06/03 00:38:15;;;;;;;6.18;2.50;;;;;;;22.36;36.73;99060.09;4482761;32;20092;-79
2022/06/03 00:40:53;;;;;;;7.75;2.45;;;;;;;22.27;37.05;99058.34;4473238;32;20108;-79
2022/06/03 00:43:47;;;;;;;6.50;2.55;;;;;;;22.29;37.24;99064.41;4473235;32;20095;-80
2022/06/03 00:46:31;;;;;;;7.18;2.20;;;;;;;22.27;37.54;99065.53;4487207;32;20143;-79
2022/06/03 00:49:12;;;;;;;5.55;2.40;;;;;;;22.26;37.91;99071.91;4487382;32;20087;-79
2022/06/03 00:51:46;;;;;;;7.18;2.28;;;;;;;22.19;37.84;99076.97;4473196;32;20167;-80
2022/06/03 00:54:39;;;;;;;6.45;2.35;;;;;;;22.14;37.59;99071.25;4487219;32;20201;-80
2022/06/03 00:57:43;;;;;;;6.97;2.45;;;;;;;22.14;37.62;99079.28;4472959;32;20092;-79
2022/06/03 01:00:22;;;;;;;6.40;2.40;;;;;;;22.07;37.54;99079.03;4478587;32;20084;-79
2022/06/03 01:03:09;;;;;;;6.28;2.22;;;;;;;22.08;37.43;99083.41;4472788;32;20531;-79
2022/06/03 01:06:05;;;;;;;6.97;2.20;;;;;;;22.03;37.28;99077.66;4473087;32;20451;-79
2022/06/03 01:08:44;;;;;;;6.43;2.42;;;;;;;21.79;37.90;99080.91;4486769;32;20161;-80
2022/06/03 01:11:19;;;;;;;7.37;2.28;;;;;;;22.02;37.23;99072.44;4485740;32;20107;-79
2022/06/03 01:13:56;;;;;;;8.55;2.53;;;;;;;22.14;37.05;99072.09;4486537;32;20234;-79
2022/06/03 01:16:49;;;;;;;5.47;2.20;;;;;;;22.08;37.35;99075.38;4472713;32;20122;-80
2022/06/03 01:19:30;;;;;;;7.43;2.33;;;;;;;22.17;37.45;99073.59;4486801;32;20106;-79
2022/06/03 01:22:10;;;;;;;6.05;2.10;;;;;;;22.21;37.76;99083.03;4486763;32;20076;-79
2022/06/03 01:24:42;;;;;;;5.43;2.22;;;;;;;22.21;37.84;99080.34;4486779;32;20108;-79
2022/06/03 01:27:45;;;;;;;7.93;2.35;;;;;;;22.19;37.90;99074.31;4486716;32;20110;-80
2022/06/03 01:30:24;;;;;;;6.97;2.40;;;;;;;22.22;37.77;99079.37;4472398;32;20091;-79
2022/06/03 01:32:59;;;;;;;6.45;2.47;;;;;;;22.25;37.83;99080.94;4472442;32;20099;-79
2022/06/03 01:35:52;;;;;;;7.47;2.22;;;;;;;22.24;37.96;99073.88;4486819;32;20120;-80
2022/06/03 01:38:32;;;;;;;5.97;2.65;;;;;;;22.30;38.00;99084.03;4486749;32;20087;-79
2022/06/03 01:41:10;;;;;;;5.20;2.30;;;;;;;22.26;38.09;99088.84;4486683;32;20100;-80
2022/06/03 01:43:55;;;;;;;;;;;;;;;22.27;38.19;99087.00;4472545;32;20405;-78
2022/06/03 01:46:26;;;;;;;6.65;2.40;;;;;;;22.36;38.13;99094.16;4486807;32;19987;-79
2022/06/03 01:48:57;;;;;;;5.82;2.35;;;;;;;22.34;38.34;99090.78;4486559;32;20088;-78
2022/06/03 01:51:44;;;;;;;5.75;2.10;;;;;;;22.36;38.30;99103.03;4486380;32;20155;-80
2022/06/03 01:54:28;;;;;;;5.87;2.28;;;;;;;22.35;38.48;99100.53;4472007;32;20598;-79
2022/06/03 01:57:33;;;;;;;4.55;2.08;;;;;;;22.38;38.52;99113.62;4486478;32;20148;-79
2022/06/03 02:00:07;;;;;;;6.28;2.47;;;;;;;22.41;38.54;99107.97;4486426;32;20120;-79
2022/06/03 02:03:08;;;;;;;6.50;2.33;;;;;;;22.46;38.53;99104.81;4486287;32;20144;-80
2022/06/03 02:05:59;;;;;;;6.20;2.35;;;;;;;22.50;38.60;99099.00;4408990;32;20109;-79
2022/06/03 02:08:54;;;;;;;7.72;2.70;;;;;;;22.53;38.71;99100.53;4421763;32;20177;-80
2022/06/03 02:11:29;;;;;;;5.28;2.17;;;;;;;22.56;38.84;99106.44;4421986;32;20783;-79
2022/06/03 02:13:57;;;;;;;6.15;2.50;;;;;;;22.53;38.76;99104.06;4421903;32;20290;-79
2022/06/03 02:16:44;;;;;;;6.05;2.50;;;;;;;22.52;38.81;99094.34;4408975;32;20280;-79
2022/06/03 02:19:23;;;;;;;6.47;2.40;;;;;;;22.54;38.94;99094.16;4421975;32;20122;-80
2022/06/03 02:22:13;;;;;;;7.18;2.30;;;;;;;22.57;39.03;99099.22;4421772;32;20180;-77
2022/06/03 02:25:16;;;;;;;7.15;2.65;;;;;;;22.55;39.08;99099.38;4409652;32;20124;-80
2022/06/03 02:27:52;;;;;;;6.82;2.72;;;;;;;22.55;39.28;99101.22;4411218;32;20089;-80
2022/06/03 02:30:50;;;;;;;7.00;2.35;;;;;;;22.46;39.45;99097.59;4398044;32;20535;-80
2022/06/03 02:33:57;;;;;;;5.90;2.42;;;;;;;22.45;39.67;99105.84;4410862;32;20164;-80
2022/06/03 02:36:50;;;;;;;6.37;2.40;;;;;;;22.45;39.68;99100.47;4410821;32;20164;-79
2022/06/03 02:39:37;;;;;;;7.90;2.70;;;;;;;22.40;39.74;99102.75;4423902;32;20111;-80
2022/06/03 02:42:28;;;;;;;7.15;2.72;;;;;;;22.35;39.79;99106.72;4445875;32;20470;-80
2022/06/03 02:45:14;;;;;;;6.07;2.62;;;;;;;22.34;39.95;99099.66;4488102;32;20093;-80
2022/06/03 02:48:17;;;;;;;6.90;2.37;;;;;;;22.23;40.02;99096.31;4460539;32;20132;-79
2022/06/03 02:51:04;;;;;;;5.72;2.47;;;;;;;22.14;39.75;99101.59;4473231;32;20079;-80
2022/06/03 02:53:51;;;;;;;6.78;2.58;;;;;;;22.23;39.81;99096.31;4473464;32;20104;-80
2022/06/03 02:56:20;;;;;;;7.20;2.58;;;;;;;22.25;39.99;99103.28;4487817;32;20486;-80
2022/06/03 02:59:11;;;;;;;7.25;2.17;;;;;;;22.26;40.20;99101.44;4487886;32;20194;-80
2022/06/03 03:01:56;;;;;;;8.02;2.70;;;;;;;22.27;40.35;99095.06;4473571;32;20084;-79
2022/06/03 03:04:28;;;;;;;7.00;2.55;;;;;;;22.25;40.42;99091.69;4473351;32;20506;-80
2022/06/03 03:07:19;;;;;;;5.85;2.12;;;;;;;22.09;40.46;99090.47;4487474;32;20119;-80
2022/06/03 03:10:00;;;;;;;6.12;2.45;;;;;;;22.21;40.23;99092.94;4473248;32;20076;-80
2022/06/03 03:13:20;;;;;;;7.55;2.70;;;;;;;22.27;40.35;99097.72;4473594;32;20072;-80
2022/06/03 03:16:36;;;;;;;7.37;2.35;;;;;;;22.34;40.11;99105.03;4410657;32;20124;-80
2022/06/03 03:19:35;;;;;;;7.40;2.35;;;;;;;22.40;40.26;99110.81;4377823;32;20161;-79
2022/06/03 03:22:16;;;;;;;6.40;2.70;;;;;;;22.47;40.30;99118.09;4377921;32;20172;-79
2022/06/03 03:25:23;;;;;;;6.72;2.72;;;;;;;22.57;40.23;99124.22;4377805;32;20113;-79
2022/06/03 03:28:10;;;;;;;6.22;2.47;;;;;;;22.53;39.84;99122.84;4365089;32;20110;-80
2022/06/03 03:30:46;;;;;;;7.05;2.70;;;;;;;22.72;39.78;99123.72;4372804;32;20169;-79
2022/06/03 03:33:27;;;;;;;5.60;2.28;;;;;;;22.43;39.89;99126.63;4392815;32;20506;-79
2022/06/03 03:36:10;;;;;;;6.40;2.67;;;;;;;22.69;39.79;99124.84;4380071;32;20114;-79
2022/06/03 03:38:54;;;;;;;7.30;2.92;;;;;;;22.89;39.56;99133.63;4392994;32;20118;-79
2022/06/03 03:41:56;;;;;;;7.62;2.97;;;;;;;23.05;39.40;99132.94;4380172;32;20462;-79
2022/06/03 03:44:56;;;;;;;7.15;2.80;;;;;;;23.03;38.59;99136.78;4392899;32;20564;-79
2022/06/03 03:48:10;;;;;;;7.05;2.35;;;;;;;23.16;38.78;99148.00;4318345;33;20147;-80
2022/06/03 03:50:42;;;;;;;7.68;2.72;;;;;;;23.19;38.96;99139.59;4346471;32;20640;-80
2022/06/03 03:53:29;;;;;;;7.12;2.85;;;;;;;23.29;38.50;99139.50;4362487;32;20189;-80
2022/06/03 03:56:21;;;;;;;7.22;2.50;;;;;;;23.33;38.48;99133.66;4387272;32;20217;-79
2022/06/03 03:59:04;;;;;;;7.35;2.53;;;;;;;23.52;38.51;99134.44;4392716;32;20449;-79
2022/06/03 04:01:48;;;;;;;5.53;2.30;;;;;;;23.71;38.29;99126.16;4392647;32;20414;-79
2022/06/03 04:04:50;;;;;;;6.37;2.50;;;;;;;23.87;37.70;99132.66;4398462;32;20144;-80
2022/06/03 04:07:54;;;;;;;6.53;2.53;;;;;;;23.85;38.06;99131.97;4407560;32;20491;-80
2022/06/03 04:10:45;;;;;;;6.37;2.37;;;;;;;24.00;37.86;99141.13;4392953;32;20078;-80
2022/06/03 04:13:16;;;;;;;6.85;2.47;;;;;;;24.24;37.86;99137.72;4392684;32;20133;-80
2022/06/03 04:16:02;;;;;;;6.45;2.50;;;;;;;24.32;37.18;99148.50;4392651;32;20117;-80
2022/06/03 04:18:58;;;;;;;7.45;2.67;;;;;;;24.50;36.86;99144.84;4392577;32;20112;-78
2022/06/03 04:21:50;;;;;;;8.48;2.72;;;;;;;24.61;36.99;99144.59;4380164;32;20100;-79
2022/06/03 04:24:41;;;;;;;7.32;2.80;;;;;;;24.77;37.07;99149.16;4401117;32;20105;-79
2022/06/03 04:27:20;;;;;;;8.40;2.80;;;;;;;24.98;36.80;99145.97;4425576;32;20541;-79
2022/06/03 04:30:02;;;;;;;5.97;2.40;;;;;;;25.04;36.78;99145.31;4425474;32;20746;-80
2022/06/03 04:32:46;;;;;;;7.40;2.80;;;;;;;25.14;36.35;99149.69;4438309;32;20099;-79
2022/06/03 04:35:33;;;;;;;7.68;2.87;;;;;;;25.31;36.19;99148.72;4438649;32;20173;-78
2022/06/03 04:38:20;;;;;;;7.35;3.17;;;;;;;25.43;35.37;99154.59;4438319;32;20665;-80
2022/06/03 04:41:04;;;;;;;6.72;2.97;;;;;;;25.61;35.42;99155.25;4438134;32;20480;-80
2022/06/03 04:44:03;;;;;;;8.10;2.83;;;;;;;25.93;35.11;99156.19;4438241;32;20171;-79
2022/06/03 04:46:50;;;;;;;8.45;2.67;;;;;;;26.30;35.03;99157.41;4438031;32;20276;-79
2022/06/03 04:49:24;;;;;;;12.88;2.90;;;;;;;26.70;34.10;99149.31;4425221;32;20093;-81
2022/06/03 04:52:13;;;;;;;9.63;3.15;;;;;;;27.04;33.86;99154.28;4438119;32;20111;-81
2022/06/03 04:55:13;;;;;;;5.68;2.67;;;;;;;27.33;33.10;99158.12;4437998;32;20479;-80
2022/06/03 04:57:50;;;;;;;7.07;2.95;;;;;;;27.13;32.67;99155.91;4438211;32;20192;-80
2022/06/03 05:00:20;;;;;;;8.55;3.20;;;;;;;26.93;33.34;99154.72;4442233;32;20488;-80
2022/06/03 05:03:11;;;;;;;6.62;2.85;;;;;;;26.95;33.49;99153.50;4472854;32;20085;-81
2022/06/03 05:05:48;;;;;;;9.00;2.92;;;;;;;27.12;33.81;99153.38;4487014;32;20074;-81
2022/06/03 05:08:17;;;;;;;9.45;3.00;;;;;;;27.22;33.66;99157.50;4472668;32;20100;-81
2022/06/03 05:11:00;;;;;;;8.15;2.70;;;;;;;27.34;32.55;99157.13;4487089;32;20149;-81
2022/06/03 05:13:46;;;;;;;8.15;3.20;;;;;;;27.35;32.80;99167.75;4487023;32;20164;-81
2022/06/03 05:16:53;;;;;;;8.07;3.30;;;;;;;27.37;32.85;99165.72;4486972;32;20076;-80
2022/06/03 05:19:32;;;;;;;7.62;3.17;;;;;;;27.32;32.93;99173.53;4471888;32;20107;-80
2022/06/03 05:22:13;;;;;;;6.90;2.92;;;;;;;27.36;33.36;99172.13;4486924;32;20119;-79
2022/06/03 05:25:00;;;;;;;8.57;3.30;;;;;;;27.46;32.74;99172.72;4486850;32;20406;-80
2022/06/03 05:28:00;;;;;;;10.88;3.33;;;;;;;27.44;32.56;99182.03;4486881;32;20169;-79
2022/06/03 05:30:57;;;;;;;11.02;3.30;;;;;;;27.16;33.12;99193.41;4472333;32;20092;-79
2022/06/03 05:33:59;;;;;;;7.62;3.20;;;;;;;27.11;33.64;99197.66;4472035;32;20108;-78
2022/06/03 05:36:56;;;;;;;9.60;3.22;;;;;;;27.21;33.22;99188.28;4486664;32;20092;-80
2022/06/03 05:39:49;;;;;;;7.32;3.17;;;;;;;27.28;32.93;99193.84;4472533;32;20106;-81
2022/06/03 05:42:36;;;;;;;8.48;3.08;;;;;;;27.41;32.86;99196.78;4472277;32;20116;-79
2022/06/03 05:45:04;;;;;;;7.90;3.35;;;;;;;27.45;32.03;99194.56;4486696;32;20084;-82
2022/06/03 05:47:34;;;;;;;9.13;3.75;;;;;;;27.49;32.30;99197.72;4486537;32;20107;-83
2022/06/03 05:50:07;;;;;;;8.93;3.65;;;;;;;27.52;32.84;99197.38;4472236;32;20080;-83
2022/06/03 05:52:36;;;;;;;7.40;3.20;;;;;;;27.52;32.25;99202.78;4472307;32;20180;-84
2022/06/03 05:55:09;;;;;;;9.88;3.58;;;;;;;27.50;32.71;99200.25;4486494;32;20153;-84
2022/06/03 05:57:46;;;;;;;8.07;3.12;;;;;;;27.56;32.14;99198.66;4486426;32;20076;-83
2022/06/03 06:00:18;;;;;;;7.30;3.30;;;;;;;27.74;31.65;99198.31;4473166;32;20117;-78
2022/06/03 06:02:52;;;;;;;7.40;3.33;;;;;;;27.64;31.58;99194.03;4488197;32;20096;-84
2022/06/03 06:05:37;;;;;;;8.48;3.60;;;;;;;27.25;31.63;99205.88;4488031;32;20088;-82
2022/06/03 06:08:24;;;;;;;7.55;3.33;;;;;;;27.37;30.76;99203.59;4473604;32;20081;-81
2022/06/03 06:11:17;;;;;;;6.28;2.78;;;;;;;27.44;31.37;99196.41;4488327;32;20554;-80
2022/06/03 06:14:38;;;;;;;9.30;3.30;;;;;;;27.70;30.98;99186.19;4488309;32;20084;-80
2022/06/03 06:17:16;;;;;;;7.20;3.22;;;;;;;27.57;29.92;99193.09;4424001;32;20155;-91
2022/06/03 06:19:49;;;;;;;8.75;3.45;;;;;;;27.74;30.52;99187.50;4424030;32;20201;-84
2022/06/03 06:22:31;;;;;;;7.53;3.08;;;;;;;27.83;30.40;99191.81;4423864;32;20077;-81
2022/06/03 06:25:02;;;;;;;8.48;3.17;;;;;;;27.81;29.76;99185.75;4423868;32;20128;-81
2022/06/03 06:27:30;;;;;;;7.40;3.10;;;;;;;27.74;29.96;99187.50;4423516;32;20353;-84
2022/06/03 06:29:58;;;;;;;6.75;3.15;;;;;;;27.53;29.29;99199.88;4423460;32;20077;-80
2022/06/03 06:32:51;;;;;;;10.07;3.40;;;;;;;27.40;30.12;99188.84;4423767;32;20073;-80
2022/06/03 06:35:41;;;;;;;9.30;3.92;;;;;;;27.54;30.59;99195.31;4423706;32;20132;-80
2022/06/03 06:38:30;;;;;;;10.45;3.35;;;;;;;27.69;30.77;99189.94;4423735;32;20119;-86
2022/06/03 06:41:01;;;;;;;8.73;3.20;;;;;;;27.65;30.51;99192.16;4423527;32;20082;-81
2022/06/03 06:44:07;;;;;;;6.85;3.05;;;;;;;27.77;30.89;99181.72;4410611;32;20111;-81
2022/06/03 06:47:00;;;;;;;6.45;2.90;;;;;;;27.99;30.40;99185.41;4422968;32;20125;-84
2022/06/03 06:49:39;;;;;;;8.13;3.30;;;;;;;28.12;30.40;99185.59;4486903;32;20383;-84
2022/06/03 06:52:22;;;;;;;6.93;3.20;;;;;;;28.09;30.32;99194.09;4471577;32;20466;-84
2022/06/03 06:55:12;;;;;;;9.18;3.40;;;;;;;28.02;30.68;99191.28;4472826;32;20160;-84
2022/06/03 06:57:52;;;;;;;8.40;3.58;;;;;;;28.01;30.89;99192.34;4423661;32;20124;-83
2022/06/03 07:00:27;;;;;;;7.82;2.95;;;;;;;28.18;30.86;99187.56;4410797;32;20140;-84
2022/06/03 07:03:15;;;;;;;8.07;3.33;;;;;;;28.20;31.43;99185.50;4397947;32;20253;-83
2022/06/03 07:05:51;;;;;;;10.53;3.90;;;;;;;28.17;31.19;99185.87;4398213;32;20093;-84
2022/06/03 07:08:29;;;;;;;9.30;3.60;;;;;;;28.19;31.50;99183.00;4410575;32;20110;-84
2022/06/03 07:11:05;;;;;;;9.93;3.85;;;;;;;28.16;31.52;99180.63;4423265;32;20110;-84
2022/06/03 07:13:42;;;;;;;10.38;3.97;;;;;;;28.21;31.96;99176.34;4423402;32;20093;-84
2022/06/03 07:22:13;;;;;;;9.02;3.28;;;;;;;28.15;30.77;99181.69;4423569;32;20174;-84
2022/06/03 07:24:48;;;;;;;7.95;3.45;;;;;;;28.14;31.75;99175.41;4410597;32;20093;-84
2022/06/03 07:27:25;;;;;;;7.22;3.17;;;;;;;28.18;31.56;99165.91;4423232;32;20144;-83
2022/06/03 07:29:59;;;;;;;12.32;3.92;;;;;;;28.30;32.18;99168.09;4423463;32;20101;-83
2022/06/03 07:32:28;;;;;;;8.35;3.12;;;;;;;28.35;30.79;99165.69;4423756;32;20109;-83
2022/06/03 07:35:01;;;;;;;8.35;3.37;;;;;;;28.33;31.59;99159.62;4459472;32;20564;-84
2022/06/03 07:37:27;;;;;;;8.98;3.10;;;;;;;28.44;31.29;99153.72;4473492;32;20084;-84
2022/06/03 07:40:06;;;;;;;8.88;3.10;;;;;;;28.41;31.17;99159.50;4487523;32;20353;-83
2022/06/03 07:42:38;;;;;;;13.75;3.33;;;;;;;28.58;30.28;99147.44;4473453;32;20100;-84
2022/06/03 07:45:41;;;;;;;7.53;2.90;;;;;;;28.61;30.75;99154.37;4473323;32;20092;-83
2022/06/03 07:48:12;;;;;;;9.07;3.05;;;;;;;28.44;29.75;99162.66;4487732;32;20172;-84
2022/06/03 07:50:48;;;;;;;10.90;3.03;;;;;;;28.56;29.22;99167.63;4473622;32;20431;-83
2022/06/03 07:53:41;;;;;;;7.82;2.50;;;;;;;28.62;29.38;99162.28;4473372;32;20096;-83
2022/06/03 07:56:06;;;;;;;8.52;2.70;;;;;;;28.68;27.94;99157.13;4479007;32;20142;-84
2022/06/03 07:58:35;;;;;;;6.72;2.62;;;;;;;28.65;27.83;99152.09;4473396;32;20117;-84
2022/06/03 08:01:01;;;;;;;8.07;2.70;;;;;;;28.82;27.98;99161.69;4487793;32;20592;-84
2022/06/03 08:03:34;;;;;;;6.95;3.00;;;;;;;28.77;28.35;99159.53;4487660;32;20100;-83
2022/06/03 08:06:03;;;;;;;8.50;2.72;;;;;;;28.83;28.01;99156.03;4473438;32;20116;-83
2022/06/03 08:11:15;;;;;;;7.60;2.50;;;;;;;29.03;27.53;99158.09;4487468;32;20206;-83
2022/06/03 08:13:41;;;;;;;7.90;2.55;;;;;;;28.99;27.57;99160.41;4487332;32;20084;-83
2022/06/03 08:16:33;;;;;;;6.43;2.50;;;;;;;29.09;27.57;99160.06;4487319;32;20160;-83
2022/06/03 08:19:12;;;;;;;6.20;2.70;;;;;;;29.10;26.77;99150.06;4487361;32;20106;-84
2022/06/03 08:21:51;;;;;;;7.25;2.50;;;;;;;29.10;27.69;99147.34;4473046;32;20149;-84
2022/06/03 08:24:22;;;;;;;8.38;2.75;;;;;;;29.18;27.29;99144.50;4487404;32;20101;-83
2022/06/03 08:26:57;;;;;;;5.43;2.60;;;;;;;29.25;27.44;99145.41;4487286;32;20098;-84
2022/06/03 08:29:32;;;;;;;6.05;2.47;;;;;;;29.29;26.74;99148.59;4473059;32;20383;-83
2022/06/03 08:31:58;;;;;;;6.28;2.70;;;;;;;29.06;26.60;99151.47;4473000;32;20419;-83
2022/06/03 08:34:47;;;;;;;9.57;3.00;;;;;;;28.99;27.24;99151.41;4473186;32;20100;-84
2022/06/03 08:37:18;;;;;;;6.80;2.53;;;;;;;29.14;27.44;99145.94;4487304;32;20218;-84
2022/06/03 08:39:44;;;;;;;6.65;2.62;;;;;;;29.15;27.43;99145.75;4473054;32;20110;-83
2022/06/03 08:42:25;;;;;;;8.23;2.80;;;;;;;29.25;27.84;99145.41;4472858;32;20104;-83
2022/06/03 08:45:05;;;;;;;6.70;2.80;;;;;;;29.23;27.33;99142.06;4472931;32;20096;-84
2022/06/03 08:47:38;;;;;;;5.90;2.45;;;;;;;29.27;27.40;99140.63;4487090;32;20107;-84
2022/06/03 08:50:13;;;;;;;5.75;2.50;;;;;;;29.34;27.25;99136.09;4472875;32;20092;-83
2022/06/03 08:52:45;;;;;;;7.05;2.60;;;;;;;29.31;27.51;99136.47;4473116;32;20131;-83
2022/06/03 08:55:38;;;;;;;8.38;2.55;;;;;;;29.39;27.29;99143.66;4472945;32;20542;-83
2022/06/03 08:58:29;;;;;;;8.70;2.72;;;;;;;29.36;26.64;99138.59;4487106;32;20136;-84
2022/06/03 09:01:06;;;;;;;5.93;2.58;;;;;;;29.34;27.28;99146.09;4437945;32;20090;-83
2022/06/03 09:03:41;;;;;;;7.95;2.72;;;;;;;29.40;27.25;99146.16;4430889;32;231105;-83
2022/06/03 09:06:18;;;;;;;8.07;2.92;;;;;;;29.44;27.97;99153.91;4425235;32;20156;-83
2022/06/03 09:08:52;;;;;;;7.22;2.90;;;;;;;29.47;27.44;99156.22;4437988;32;20109;-83
2022/06/03 09:11:42;;;;;;;6.75;2.80;;;;;;;29.39;27.17;99146.34;4438016;32;20097;-83
2022/06/03 09:14:11;;;;;;;7.60;2.47;;;;;;;29.37;27.80;99137.56;4425271;32;20136;-83
2022/06/03 09:16:39;;;;;;;5.60;2.60;;;;;;;29.40;28.01;99143.47;4425266;32;20224;-83
2022/06/03 09:19:06;;;;;;;7.93;2.95;;;;;;;29.45;27.25;99129.28;4437883;32;20089;-83
2022/06/03 09:21:33;;;;;;;5.85;2.70;;;;;;;29.41;27.56;99147.00;4425129;32;20173;-84
2022/06/03 09:24:09;;;;;;;8.23;2.95;;;;;;;29.37;27.73;99132.16;4412243;32;20102;-83
2022/06/03 09:26:40;;;;;;;6.28;2.20;;;;;;;29.43;27.68;99127.81;4437778;32;20171;-83
2022/06/03 09:29:10;;;;;;;6.03;2.70;;;;;;;29.50;27.68;99132.25;4437798;32;20412;-83
2022/06/03 09:31:37;;;;;;;7.60;3.00;;;;;;;29.52;28.22;99134.78;4425175;32;20168;-84
2022/06/03 09:34:03;;;;;;;4.85;2.30;;;;;;;29.59;27.68;99136.50;4424792;32;20409;-83
2022/06/03 09:36:29;;;;;;;7.68;2.72;;;;;;;29.51;26.59;99133.09;4425092;32;20124;-84
2022/06/03 09:38:59;;;;;;;5.47;2.45;;;;;;;29.39;27.02;99136.34;4466137;32;20795;-83
2022/06/03 09:41:27;;;;;;;8.45;2.50;;;;;;;29.30;27.72;99142.09;4472464;32;20112;-83
2022/06/03 09:43:53;;;;;;;6.78;2.72;;;;;;;29.32;27.61;99142.75;4472540;32;20127;-84
2022/06/03 09:46:20;;;;;;;8.38;3.15;;;;;;;29.18;27.57;99139.91;4472388;32;20416;-84
2022/06/03 09:48:46;;;;;;;6.18;2.60;;;;;;;29.35;28.06;99148.63;4472420;32;20084;-83
2022/06/03 09:51:19;;;;;;;8.20;3.03;;;;;;;29.38;27.42;99148.25;4486488;32;20318;-83
2022/06/03 09:53:45;;;;;;;5.82;2.62;;;;;;;29.38;27.63;99153.66;4486639;32;20084;-83
2022/06/03 09:56:30;;;;;;;6.30;2.95;;;;;;;29.24;28.04;99149.16;4486454;32;20502;-83
2022/06/03 09:58:59;;;;;;;7.30;2.90;;;;;;;29.35;28.07;99151.34;4472863;32;20103;-83
2022/06/03 10:01:24;;;;;;;8.60;2.80;;;;;;;29.30;28.37;99147.53;4472080;32;20102;-84
2022/06/03 10:03:56;;;;;;;8.68;2.70;;;;;;;29.30;27.97;99150.25;4472120;32;20108;-84
2022/06/03 10:14:34;;;;;;;7.35;3.00;;;;;;;29.11;28.68;99143.56;4486232;32;20118;-84
2022/06/03 10:16:59;;;;;;;7.72;3.05;;;;;;;29.27;28.89;99145.22;4486222;32;20360;-84
2022/06/03 10:19:24;;;;;;;6.32;2.62;;;;;;;29.30;28.72;99144.81;4471888;32;20084;-83
2022/06/03 10:21:52;;;;;;;8.18;3.00;;;;;;;29.27;28.61;99137.09;4486039;32;20137;-83
2022/06/03 10:24:17;;;;;;;7.53;2.83;;;;;;;29.24;28.39;99143.72;4486177;32;20096;-83
2022/06/03 10:26:52;;;;;;;8.18;2.95;;;;;;;29.30;29.46;99144.81;4471714;32;20092;-83
2022/06/03 10:29:25;;;;;;;7.65;3.08;;;;;;;29.44;28.44;99146.63;4472622;32;20523;-83
2022/06/03 10:32:02;;;;;;;8.02;2.85;;;;;;;29.44;27.88;99143.03;4486063;32;20077;-84
2022/06/03 10:34:37;;;;;;;6.72;3.00;;;;;;;29.31;27.96;99136.47;4471609;32;20101;-83
2022/06/03 10:37:06;;;;;;;7.75;2.53;;;;;;;29.17;28.24;99137.44;4471742;32;20464;-83
2022/06/03 10:39:33;;;;;;;6.12;2.60;;;;;;;29.12;28.87;99140.69;4471641;32;20443;-83
2022/06/03 10:41:59;;;;;;;8.57;2.80;;;;;;;29.16;28.71;99130.31;4485752;32;20167;-83
2022/06/03 10:44:27;;;;;;;6.82;2.97;;;;;;;29.16;28.88;99128.41;4458479;32;20108;-83
2022/06/03 10:47:02;;;;;;;7.43;2.70;;;;;;;29.35;28.72;99126.09;4487598;32;20100;-83
2022/06/03 10:49:30;;;;;;;6.62;3.00;;;;;;;29.29;28.76;99116.84;4487939;32;20088;-83
2022/06/03 11:02:58;;;;;;;8.10;3.00;;;;;;;29.45;28.37;99104.03;4475849;32;20102;-83
2022/06/03 11:05:28;;;;;;;8.00;2.92;;;;;;;29.45;27.85;99096.72;4473528;32;20456;-83
2022/06/03 11:08:10;;;;;;;8.30;2.95;;;;;;;29.48;28.04;99103.63;4487555;32;20160;-84
2022/06/03 11:10:42;;;;;;;7.78;2.95;;;;;;;29.59;28.35;99108.50;4487840;32;20088;-83
2022/06/03 11:13:09;;;;;;;7.40;2.80;;;;;;;29.48;27.81;99100.94;4487805;32;20435;-83
2022/06/03 11:15:41;;;;;;;8.02;2.80;;;;;;;29.57;28.49;99095.13;4473521;32;20096;-83
2022/06/03 11:18:18;;;;;;;6.07;2.60;;;;;;;29.70;28.09;99098.97;4487833;32;20128;-83
2022/06/03 11:20:45;;;;;;;7.20;2.67;;;;;;;29.66;27.56;99090.38;4487964;32;20085;-83
2022/06/03 11:23:13;;;;;;;8.60;2.78;;;;;;;29.73;27.72;99090.47;4473544;32;20081;-83
2022/06/03 11:25:46;;;;;;;7.20;2.90;;;;;;;29.69;27.76;99084.56;4473541;32;20108;-84
2022/06/03 11:28:32;;;;;;;5.72;2.35;;;;;;;29.82;28.49;99077.53;4487987;32;20607;-83
2022/06/03 11:31:05;;;;;;;7.50;2.60;;;;;;;29.93;27.62;99076.97;4473634;32;20088;-83
2022/06/03 11:33:34;;;;;;;6.10;2.47;;;;;;;29.98;27.45;99077.22;4473642;32;20073;-83
2022/06/03 11:36:19;;;;;;;6.28;2.30;;;;;;;29.96;27.22;99073.84;4487616;32;20105;-83
2022/06/03 11:38:54;;;;;;;7.65;2.35;;;;;;;30.09;26.78;99073.88;4487494;32;20076;-83
2022/06/03 11:41:27;;;;;;;4.03;2.10;;;;;;;30.10;27.10;99067.44;4460612;32;20092;-83
2022/06/03 11:44:05;;;;;;;5.05;2.00;;;;;;;29.97;26.58;99065.50;4473325;32;20084;-83
2022/06/03 11:46:38;;;;;;;6.37;2.08;;;;;;;30.06;26.83;99065.34;4487501;32;20428;-83
2022/06/03 11:49:06;;;;;;;6.65;2.30;;;;;;;30.05;26.24;99061.75;4487612;32;20164;-83
2022/06/03 11:51:32;;;;;;;6.12;2.42;;;;;;;30.07;26.23;99053.41;4473307;32;20092;-83
2022/06/03 11:53:58;;;;;;;6.18;2.33;;;;;;;30.05;26.38;99053.59;4473300;32;20144;-83
2022/06/03 11:56:26;;;;;;;4.87;2.20;;;;;;;29.79;25.94;99044.31;4486978;32;20092;-83
2022/06/03 11:59:01;;;;;;;5.28;2.22;;;;;;;29.93;26.59;99041.66;4472697;32;20084;-84
2022/06/03 12:01:48;;;;;;;5.12;2.42;;;;;;;30.12;26.38;99040.91;4487581;32;20155;-84
2022/06/03 12:04:44;;;;;;;5.85;2.40;;;;;;;30.19;26.22;99033.59;4487584;32;20098;-83
2022/06/03 12:07:37;;;;;;;6.45;2.42;;;;;;;30.31;26.12;99031.16;4487365;32;20123;-83
2022/06/03 12:10:40;;;;;;;5.03;2.08;;;;;;;30.24;26.55;99024.00;4487499;32;20093;-83
2022/06/03 12:13:15;;;;;;;5.93;2.30;;;;;;;30.32;26.37;99021.12;4487567;32;20155;-83
2022/06/03 12:15:48;;;;;;;6.03;2.62;;;;;;;30.41;26.17;99016.34;4487396;32;20115;-83
2022/06/03 12:18:13;;;;;;;6.35;2.40;;;;;;;30.34;26.15;99013.59;4487419;32;20104;-83
2022/06/03 12:20:48;;;;;;;7.37;2.42;;;;;;;30.40;26.19;99015.47;4487350;32;20084;-83
2022/06/03 12:23:13;;;;;;;8.65;2.60;;;;;;;30.44;25.99;99015.91;4487287;32;20112;-83
2022/06/03 12:26:00;;;;;;;7.05;2.53;;;;;;;30.45;26.23;99006.72;4487252;32;20092;-84
2022/06/03 12:28:41;;;;;;;7.75;2.75;;;;;;;30.56;26.22;99011.53;4487319;32;20123;-83
2022/06/03 12:31:36;;;;;;;12.37;3.20;;;;;;;30.53;25.77;99001.06;4460539;32;20498;-84
2022/06/03 12:34:11;;;;;;;5.90;2.35;;;;;;;30.61;25.55;98998.16;4487248;32;20207;-83
2022/06/03 12:36:52;;;;;;;6.22;2.22;;;;;;;30.60;26.10;98999.22;4487286;32;20495;-83
2022/06/03 12:39:42;;;;;;;8.25;2.40;;;;;;;30.58;25.21;98993.97;4487165;32;20483;-83
2022/06/03 12:42:32;;;;;;;4.97;2.08;;;;;;;30.53;25.48;98990.19;4487540;32;20423;-83
2022/06/03 12:45:03;;;;;;;5.32;2.30;;;;;;;30.62;25.78;98997.13;4487039;32;20108;-83
2022/06/03 12:47:33;;;;;;;7.45;2.45;;;;;;;30.61;25.99;98986.44;4486961;32;20064;-83
2022/06/03 12:50:04;;;;;;;6.62;2.60;;;;;;;30.61;25.96;98992.72;4487094;32;20448;-83
2022/06/03 12:52:30;;;;;;;6.32;2.40;;;;;;;30.60;26.02;98985.63;4487185;32;20137;-83
2022/06/03 12:54:58;;;;;;;6.37;2.42;;;;;;;30.62;26.07;98975.38;4487124;32;20093;-83
2022/06/03 12:57:31;;;;;;;7.53;2.67;;;;;;;30.70;25.86;98969.72;4487060;32;20118;-84
2022/06/03 13:00:06;;;;;;;6.30;2.72;;;;;;;30.76;25.71;98971.56;4472802;32;20104;-83
2022/06/03 13:02:36;;;;;;;5.97;2.42;;;;;;;30.68;25.86;98965.53;4472864;32;20577;-83